Time;durP1;ratioP1;P1;durP2;ratioP2;P2;SDS_P1;SDS_P2;PMS_P1;PMS_P2;Temp;Humidity;BMP_temperature;BMP_pressure;BME280_temperature;BME280_humidity;BME280_pressure;Samples;Min_cycle;Max_cycle;Signal;HPM_P1;HPM_P2
2024/01/15 00:00:44;;;;;;;1.25;0.38;;;2.00;99.90;;;;;;5056208;28;20602;-90
2024/01/15 00:03:10;;;;;;;5.18;1.02;;;2.00;99.90;;;;;;5073369;28;20384;-88
2024/01/15 00:05:36;;;;;;;3.85;0.98;;;2.00;99.90;;;;;;5055839;28;20128;-89
2024/01/15 00:08:01;;;;;;;4.15;1.25;;;2.00;99.90;;;;;;5071334;28;20119;-89
2024/01/15 00:10:27;;;;;;;2.63;0.73;;;2.00;99.90;;;;;;5054878;28;20060;-88
2024/01/15 00:12:53;;;;;;;6.00;0.80;;;2.00;99.90;;;;;;5072820;28;20085;-89
2024/01/15 00:15:18;;;;;;;3.17;0.70;;;2.00;99.90;;;;;;5055469;28;20721;-89
2024/01/15 00:17:44;;;;;;;6.43;0.75;;;2.00;99.90;;;;;;5075648;28;20452;-88
2024/01/15 00:20:10;;;;;;;4.90;0.75;;;2.00;99.90;;;;;;5055818;28;20025;-89
2024/01/15 00:22:36;;;;;;;2.75;0.85;;;2.00;99.90;;;;;;5054155;28;20497;-89
2024/01/15 00:25:02;;;;;;;4.53;1.08;;;2.00;99.90;;;;;;5054055;28;20132;-90
2024/01/15 00:27:28;;;;;;;0.77;0.50;;;2.10;99.90;;;;;;5055017;28;20072;-90
2024/01/15 00:29:54;;;;;;;3.30;0.30;;;2.10;99.90;;;;;;5056142;28;20550;-90
2024/01/15 00:32:20;;;;;;;1.27;0.43;;;2.10;99.90;;;;;;5055788;28;20033;-89
2024/01/15 00:34:46;;;;;;;3.40;0.85;;;2.10;99.90;;;;;;5056178;28;20041;-89
2024/01/15 00:37:12;;;;;;;1.45;0.38;;;2.10;99.90;;;;;;5070840;28;20108;-88
2024/01/15 00:39:37;;;;;;;7.05;1.23;;;2.00;99.90;;;;;;5070105;28;20063;-89
2024/01/15 00:42:03;;;;;;;4.13;1.10;;;2.00;99.90;;;;;;5053973;28;20695;-89
2024/01/15 00:44:29;;;;;;;5.25;1.02;;;2.00;99.90;;;;;;5069811;28;20411;-89
2024/01/15 00:46:54;;;;;;;7.22;0.75;;;2.00;99.90;;;;;;5053576;28;20415;-89
2024/01/15 00:49:20;;;;;;;5.95;0.80;;;2.00;99.90;;;;;;5054990;28;20127;-88
2024/01/15 00:51:47;;;;;;;4.93;1.02;;;2.00;99.90;;;;;;5072188;28;20507;-89
2024/01/15 00:54:12;;;;;;;4.38;0.75;;;2.00;99.90;;;;;;5069931;28;20036;-89
2024/01/15 00:56:38;;;;;;;3.67;0.55;;;2.00;99.90;;;;;;5055761;28;20085;-89
2024/01/15 00:59:04;;;;;;;3.90;1.30;;;2.00;99.90;;;;;;5073496;28;20097;-89
2024/01/15 01:01:30;;;;;;;2.28;0.63;;;2.00;99.90;;;;;;5056074;28;20082;-89
2024/01/15 01:03:55;;;;;;;2.40;0.63;;;2.00;99.90;;;;;;5054379;28;20044;-90
2024/01/15 01:06:21;;;;;;;6.18;1.30;;;2.00;99.90;;;;;;5069750;28;20044;-90
2024/01/15 01:08:47;;;;;;;4.78;2.17;;;2.00;99.90;;;;;;5070236;28;20036;-90
2024/01/15 01:11:13;;;;;;;6.65;1.35;;;2.00;99.90;;;;;;5053143;28;20036;-89
2024/01/15 01:13:39;;;;;;;4.55;0.45;;;2.00;99.90;;;;;;5055372;28;20059;-89
2024/01/15 01:16:05;;;;;;;4.05;0.98;;;2.10;99.90;;;;;;5071077;28;20071;-90
2024/01/15 01:18:30;;;;;;;3.00;0.93;;;2.10;99.90;;;;;;5054078;28;20136;-90
2024/01/15 01:20:56;;;;;;;1.25;0.50;;;2.10;99.90;;;;;;5053588;28;20419;-90
2024/01/15 01:23:21;;;;;;;3.15;0.40;;;2.20;99.90;;;;;;5053278;28;20051;-89
2024/01/15 01:25:47;;;;;;;7.00;0.85;;;2.20;99.90;;;;;;5069951;28;20064;-89
2024/01/15 01:28:13;;;;;;;2.63;0.65;;;2.30;99.90;;;;;;5070922;28;20056;-89
2024/01/15 01:30:39;;;;;;;6.10;1.08;;;2.30;99.90;;;;;;5075812;28;20428;-90
2024/01/15 01:33:05;;;;;;;11.50;1.15;;;2.30;99.90;;;;;;5070509;28;20036;-90
2024/01/15 01:35:30;;;;;;;4.38;1.27;;;2.30;99.90;;;;;;5070295;28;20443;-90
2024/01/15 01:37:56;;;;;;;4.78;1.20;;;2.30;99.90;;;;;;5075009;28;20045;-90
2024/01/15 01:40:21;;;;;;;9.80;1.00;;;2.30;99.90;;;;;;5081321;28;20111;-90
2024/01/15 01:42:48;;;;;;;4.95;0.90;;;2.40;99.90;;;;;;5080926;28;20029;-90
2024/01/15 01:45:15;;;;;;;7.32;0.90;;;2.40;99.90;;;;;;5077994;28;20043;-90
2024/01/15 01:47:41;;;;;;;7.00;1.40;;;2.30;99.90;;;;;;5077400;28;20028;-89
2024/01/15 01:50:07;;;;;;;6.60;1.13;;;2.30;99.90;;;;;;5054982;28;20526;-90
2024/01/15 01:52:33;;;;;;;0.30;0.30;;;2.30;99.90;;;;;;5053042;28;20062;-90
2024/01/15 01:55:02;;;;;;;2.95;0.98;;;2.20;99.90;;;;;;5052210;28;20041;-90
2024/01/15 01:57:28;;;;;;;3.53;1.00;;;2.20;99.90;;;;;;5054460;28;20067;-90
2024/01/15 01:59:54;;;;;;;2.47;0.57;;;2.20;99.90;;;;;;5069831;28;20093;-90
2024/01/15 02:02:21;;;;;;;2.50;0.70;;;2.20;99.90;;;;;;5071427;28;20033;-90
2024/01/15 02:04:47;;;;;;;5.22;0.90;;;2.10;99.90;;;;;;5069458;28;20036;-90
2024/01/15 02:07:13;;;;;;;4.35;0.68;;;2.10;99.90;;;;;;5053294;28;20495;-90
2024/01/15 02:09:38;;;;;;;1.90;0.40;;;2.10;99.90;;;;;;5070968;28;20033;-89
2024/01/15 02:12:04;;;;;;;1.25;0.40;;;2.00;99.90;;;;;;5071746;28;20045;-90
2024/01/15 02:14:30;;;;;;;2.08;0.65;;;2.00;99.90;;;;;;5069335;28;20039;-90
2024/01/15 02:16:56;;;;;;;1.58;0.52;;;2.00;99.90;;;;;;5052676;28;20033;-90
2024/01/15 02:19:21;;;;;;;3.67;0.40;;;2.00;99.90;;;;;;5052290;28;20127;-90
2024/01/15 02:21:47;;;;;;;2.85;0.52;;;2.00;99.90;;;;;;5071078;28;20029;-89
2024/01/15 02:24:13;;;;;;;1.45;0.65;;;1.90;99.90;;;;;;5069185;28;20607;-89
2024/01/15 02:26:39;;;;;;;4.78;0.50;;;1.90;99.90;;;;;;5055822;28;20403;-90
2024/01/15 02:29:07;;;;;;;4.07;1.17;;;1.90;99.90;;;;;;5070412;28;20075;-90
2024/01/15 02:31:33;;;;;;;4.15;0.70;;;1.90;99.90;;;;;;5052869;28;20032;-89
2024/01/15 02:33:58;;;;;;;1.48;0.38;;;1.80;99.90;;;;;;5051736;28;20085;-90
2024/01/15 02:36:24;;;;;;;2.75;0.35;;;1.80;99.90;;;;;;5052866;28;20044;-90
2024/01/15 02:38:49;;;;;;;1.65;0.45;;;1.80;99.90;;;;;;5072998;28;20028;-90
2024/01/15 02:41:15;;;;;;;3.13;0.88;;;1.90;99.90;;;;;;5053846;28;20431;-90
2024/01/15 02:43:41;;;;;;;1.45;0.50;;;1.90;99.90;;;;;;5051157;28;20044;-90
2024/01/15 02:46:07;;;;;;;0.90;0.40;;;2.00;99.90;;;;;;5051388;28;20559;-90
2024/01/15 02:48:34;;;;;;;1.30;0.65;;;2.00;99.90;;;;;;5051754;28;20120;-89
2024/01/15 02:51:00;;;;;;;1.83;0.30;;;2.00;99.90;;;;;;5052682;28;20158;-90
2024/01/15 02:53:26;;;;;;;0.20;0.20;;;2.00;99.90;;;;;;5053180;28;20119;-89
2024/01/15 02:55:51;;;;;;;1.55;0.40;;;2.10;99.90;;;;;;5055189;28;20586;-90
2024/01/15 02:58:17;;;;;;;1.55;0.40;;;2.10;99.90;;;;;;5069467;28;20040;-90
2024/01/15 03:00:43;;;;;;;0.20;0.20;;;2.10;99.90;;;;;;5068819;28;20032;-89
2024/01/15 03:03:09;;;;;;;1.17;0.38;;;2.10;99.90;;;;;;5051113;28;20113;-90
2024/01/15 03:05:34;;;;;;;1.88;0.50;;;2.10;99.90;;;;;;5051439;28;20071;-90
2024/01/15 03:08:00;;;;;;;0.40;0.20;;;2.10;99.90;;;;;;5053642;28;20127;-89
2024/01/15 03:10:25;;;;;;;0.40;0.25;;;2.10;99.90;;;;;;5052493;28;20689;-89
2024/01/15 03:12:51;;;;;;;0.10;0.10;;;2.10;99.90;;;;;;5052872;28;20035;-90
2024/01/15 03:15:18;;;;;;;0.20;0.20;;;2.10;99.90;;;;;;5050823;28;20698;-89
2024/01/15 03:17:44;;;;;;;0.80;0.28;;;2.10;99.90;;;;;;5068054;28;20058;-89
2024/01/15 03:20:10;;;;;;;0.40;0.30;;;2.10;99.90;;;;;;5051472;28;20040;-90
2024/01/15 03:22:36;;;;;;;1.13;0.30;;;2.10;99.90;;;;;;5054594;28;20076;-90
2024/01/15 03:25:02;;;;;;;1.13;0.57;;;2.10;99.90;;;;;;5069886;28;20550;-89
2024/01/15 03:27:28;;;;;;;5.70;1.20;;;2.10;99.90;;;;;;5067363;28;20067;-90
2024/01/15 03:29:54;;;;;;;3.60;0.52;;;2.10;99.90;;;;;;5050433;28;20075;-90
2024/01/15 03:32:19;;;;;;;0.65;0.30;;;2.10;99.90;;;;;;5068520;28;20055;-89
2024/01/15 03:34:47;;;;;;;7.82;0.40;;;2.10;99.90;;;;;;5068650;28;20036;-90
2024/01/15 03:37:13;;;;;;;4.78;0.60;;;2.10;99.90;;;;;;5068711;28;20036;-90
2024/01/15 03:39:38;;;;;;;3.35;0.85;;;2.10;99.90;;;;;;5052264;28;20044;-90
2024/01/15 03:42:04;;;;;;;1.45;0.43;;;2.00;99.90;;;;;;5068968;28;20028;-90
2024/01/15 03:44:30;;;;;;;1.35;0.52;;;2.00;99.90;;;;;;5067569;28;20036;-90
2024/01/15 03:46:55;;;;;;;2.83;0.38;;;2.10;99.90;;;;;;5050454;28;20507;-90
2024/01/15 03:49:21;;;;;;;8.23;0.68;;;2.00;99.90;;;;;;5067826;28;20037;-90
2024/01/15 03:51:47;;;;;;;1.65;0.32;;;2.00;99.90;;;;;;5072053;28;20109;-90
2024/01/15 03:54:12;;;;;;;5.13;1.05;;;2.00;99.90;;;;;;5050816;28;20036;-90
2024/01/15 03:56:38;;;;;;;3.42;1.15;;;2.00;99.90;;;;;;5052298;28;20028;-90
2024/01/15 03:59:03;;;;;;;2.92;1.33;;;2.00;99.90;;;;;;5052194;28;20028;-90
2024/01/15 04:01:29;;;;;;;1.35;0.28;;;2.00;99.90;;;;;;5067513;28;21548;-89
2024/01/15 04:03:55;;;;;;;9.05;1.08;;;2.10;99.90;;;;;;5069393;28;20052;-90
2024/01/15 04:06:21;;;;;;;2.72;0.43;;;2.10;99.90;;;;;;5070144;28;20040;-90
2024/01/15 04:08:46;;;;;;;6.93;0.90;;;2.10;99.90;;;;;;5069069;28;20507;-91
2024/01/15 04:11:12;;;;;;;4.63;0.65;;;2.10;99.90;;;;;;5050068;28;20037;-89
2024/01/15 04:13:37;;;;;;;3.85;1.08;;;2.10;99.90;;;;;;5049118;28;20028;-90
2024/01/15 04:16:03;;;;;;;7.57;0.77;;;2.10;99.90;;;;;;5066625;28;20454;-90
2024/01/15 04:18:29;;;;;;;1.17;0.63;;;2.20;99.90;;;;;;5067898;28;20045;-90
2024/01/15 04:20:55;;;;;;;1.98;0.55;;;2.20;99.90;;;;;;5067088;28;20123;-89
2024/01/15 04:23:20;;;;;;;2.00;0.55;;;2.10;99.90;;;;;;5048963;28;20045;-88
2024/01/15 04:25:46;;;;;;;4.53;0.82;;;2.10;99.90;;;;;;5051414;28;20040;-89
2024/01/15 04:28:12;;;;;;;7.53;0.85;;;2.10;99.90;;;;;;5050937;28;20066;-89
2024/01/15 04:30:38;;;;;;;3.10;0.50;;;2.20;99.90;;;;;;5068354;28;20119;-89
2024/01/15 04:33:03;;;;;;;3.95;1.25;;;2.20;99.90;;;;;;5052417;28;20112;-89
2024/01/15 04:35:30;;;;;;;5.68;1.00;;;2.10;99.90;;;;;;5053212;28;20490;-89
2024/01/15 04:37:56;;;;;;;3.05;0.90;;;2.20;99.90;;;;;;5052734;28;20036;-89
2024/01/15 04:40:21;;;;;;;2.28;0.57;;;2.20;99.90;;;;;;5066542;28;20036;-89
2024/01/15 04:42:47;;;;;;;5.18;1.40;;;2.20;99.90;;;;;;5069922;28;20588;-89
2024/01/15 04:45:13;;;;;;;4.45;0.95;;;2.20;99.90;;;;;;5053930;28;20040;-88
2024/01/15 04:47:39;;;;;;;1.98;0.75;;;2.20;99.90;;;;;;5073156;28;20078;-89
2024/01/15 04:50:05;;;;;;;3.30;0.55;;;2.20;99.90;;;;;;5072472;28;20064;-89
2024/01/15 04:52:31;;;;;;;2.83;0.30;;;2.20;99.90;;;;;;5053391;28;20033;-89
2024/01/15 04:54:57;;;;;;;0.95;0.35;;;2.20;99.90;;;;;;5054568;28;20040;-88
2024/01/15 04:57:22;;;;;;;17.95;1.95;;;2.20;99.90;;;;;;5053745;28;20412;-89
2024/01/15 04:59:48;;;;;;;4.00;1.17;;;2.20;99.90;;;;;;5054724;28;20035;-89
2024/01/15 05:02:13;;;;;;;5.45;1.55;;;2.20;99.90;;;;;;5072416;28;20051;-88
2024/01/15 05:04:39;;;;;;;4.50;0.68;;;2.20;99.90;;;;;;5073586;28;20037;-89
2024/01/15 05:07:05;;;;;;;7.68;0.38;;;2.20;99.90;;;;;;5070162;28;20591;-89
2024/01/15 05:09:30;;;;;;;5.75;0.57;;;2.30;99.90;;;;;;5071148;28;20032;-88
2024/01/15 05:11:56;;;;;;;6.03;0.98;;;2.20;99.90;;;;;;5053167;28;20238;-89
2024/01/15 05:14:21;;;;;;;2.17;0.95;;;2.20;99.90;;;;;;5053805;28;20035;-88
2024/01/15 05:16:48;;;;;;;2.28;0.40;;;2.30;99.90;;;;;;5072589;28;20040;-89
2024/01/15 05:19:14;;;;;;;1.50;0.82;;;2.20;99.90;;;;;;5072945;28;20048;-89
2024/01/15 05:21:39;;;;;;;1.85;0.38;;;2.30;99.90;;;;;;5053982;28;20033;-89
2024/01/15 05:24:05;;;;;;;1.83;0.30;;;2.20;99.90;;;;;;5070012;28;20042;-89
2024/01/15 05:26:31;;;;;;;10.77;1.70;;;2.20;99.90;;;;;;5070023;28;20052;-90
2024/01/15 05:28:57;;;;;;;1.50;0.28;;;2.20;99.90;;;;;;5054094;28;20503;-89
2024/01/15 05:31:23;;;;;;;1.30;0.93;;;2.20;99.90;;;;;;5072018;28;20036;-89
2024/01/15 05:33:48;;;;;;;6.03;1.83;;;2.10;99.90;;;;;;5073050;28;20040;-89
2024/01/15 05:36:14;;;;;;;5.32;0.75;;;2.10;99.90;;;;;;5070616;28;20032;-88
2024/01/15 05:38:40;;;;;;;5.47;0.75;;;2.10;99.90;;;;;;5053924;28;20032;-89
2024/01/15 05:41:05;;;;;;;0.15;0.15;;;2.00;99.90;;;;;;5053018;28;20438;-89
2024/01/15 05:43:31;;;;;;;1.23;0.50;;;2.00;99.90;;;;;;5070725;28;20032;-88
2024/01/15 05:45:58;;;;;;;2.47;0.52;;;2.00;99.90;;;;;;5073785;28;20036;-89
2024/01/15 05:48:23;;;;;;;3.95;1.15;;;1.90;99.90;;;;;;5052730;28;20032;-88
2024/01/15 05:50:49;;;;;;;1.95;0.30;;;1.90;99.90;;;;;;5071269;28;20384;-89
2024/01/15 05:53:15;;;;;;;8.48;0.68;;;1.90;99.90;;;;;;5052187;28;20381;-89
2024/01/15 05:55:40;;;;;;;0.60;0.32;;;1.80;99.90;;;;;;5052537;28;20032;-89
2024/01/15 05:58:06;;;;;;;4.78;2.25;;;1.80;99.90;;;;;;5052187;28;20060;-88
2024/01/15 06:00:35;;;;;;;0.40;0.28;;;1.80;99.90;;;;;;5068441;28;20044;-88
2024/01/15 06:03:01;;;;;;;5.68;0.77;;;1.80;99.90;;;;;;5054272;28;20514;-88
2024/01/15 06:05:27;;;;;;;5.78;0.65;;;1.80;99.90;;;;;;5053627;28;20028;-89
2024/01/15 06:07:53;;;;;;;1.30;0.68;;;1.80;99.90;;;;;;5070555;28;20036;-89
2024/01/15 06:10:19;;;;;;;2.28;0.65;;;1.80;99.90;;;;;;5068490;28;20641;-89
2024/01/15 06:12:44;;;;;;;5.57;0.52;;;1.80;99.90;;;;;;5070371;28;20067;-89
2024/01/15 06:15:10;;;;;;;2.05;0.32;;;1.80;99.90;;;;;;5069846;28;20043;-88
2024/01/15 06:17:36;;;;;;;3.70;1.05;;;1.80;99.90;;;;;;5070741;28;20397;-89
2024/01/15 06:20:03;;;;;;;3.25;0.73;;;1.70;99.90;;;;;;5067454;28;20029;-88
2024/01/15 06:22:28;;;;;;;5.22;0.93;;;1.80;99.90;;;;;;5069333;28;20033;-89
2024/01/15 06:24:55;;;;;;;7.18;1.67;;;1.70;99.90;;;;;;5051830;28;20036;-90
2024/01/15 06:27:21;;;;;;;8.68;1.75;;;1.70;99.90;;;;;;5069672;28;20060;-89
2024/01/15 06:29:49;;;;;;;7.05;0.95;;;1.70;99.90;;;;;;5072598;28;20197;-89
2024/01/15 06:32:15;;;;;;;2.40;0.90;;;1.70;99.90;;;;;;5051794;28;20048;-88
2024/01/15 06:34:40;;;;;;;5.78;0.73;;;1.70;99.90;;;;;;5069432;28;20048;-89
2024/01/15 06:37:06;;;;;;;4.97;1.20;;;1.60;99.90;;;;;;5052158;28;20039;-88
2024/01/15 06:39:32;;;;;;;9.13;1.85;;;1.60;99.90;;;;;;5051743;28;20119;-89
2024/01/15 06:41:57;;;;;;;5.47;0.75;;;1.70;99.90;;;;;;5069336;28;20040;-89
2024/01/15 06:44:23;;;;;;;0.55;0.43;;;1.70;99.90;;;;;;5071081;28;20036;-89
2024/01/15 06:46:49;;;;;;;2.38;0.40;;;1.70;99.90;;;;;;5053852;28;20753;-89
2024/01/15 06:49:15;;;;;;;3.88;1.10;;;1.70;99.90;;;;;;5069825;28;20499;-89
2024/01/15 06:51:41;;;;;;;4.10;0.60;;;1.70;99.90;;;;;;5069618;28;20116;-89
2024/01/15 06:54:07;;;;;;;1.75;0.20;;;1.60;99.90;;;;;;5068739;28;20099;-89
2024/01/15 06:56:32;;;;;;;4.05;1.00;;;1.60;99.90;;;;;;5053394;28;20546;-89
2024/01/15 06:58:58;;;;;;;1.00;0.50;;;1.60;99.90;;;;;;5073522;28;20032;-89
2024/01/15 07:01:24;;;;;;;5.65;0.43;;;1.60;99.90;;;;;;5067707;28;20111;-89
2024/01/15 07:03:49;;;;;;;2.90;0.70;;;1.60;99.90;;;;;;5069298;28;20048;-89
2024/01/15 07:06:16;;;;;;;3.97;0.38;;;1.60;99.90;;;;;;5067613;28;20068;-89
2024/01/15 07:08:42;;;;;;;2.30;0.60;;;1.60;99.90;;;;;;5051994;28;20037;-89
2024/01/15 07:11:08;;;;;;;1.35;1.25;;;1.60;99.90;;;;;;5052529;28;20036;-89
2024/01/15 07:13:34;;;;;;;4.95;0.57;;;1.50;99.90;;;;;;5070693;28;20484;-88
2024/01/15 07:15:59;;;;;;;6.80;0.57;;;1.50;99.90;;;;;;5050692;28;20115;-88
2024/01/15 07:18:25;;;;;;;3.30;0.35;;;1.50;99.90;;;;;;5087304;28;20095;-88
2024/01/15 07:20:51;;;;;;;1.92;0.60;;;1.50;99.90;;;;;;5078331;28;20032;-89
2024/01/15 07:23:17;;;;;;;0.55;0.50;;;1.50;99.90;;;;;;5080201;28;20032;-89
2024/01/15 07:25:43;;;;;;;1.02;0.73;;;1.50;99.90;;;;;;5080781;28;20039;-88
2024/01/15 07:28:09;;;;;;;1.70;0.50;;;1.50;99.90;;;;;;5059688;28;20062;-88
2024/01/15 07:30:34;;;;;;;1.85;0.22;;;1.50;99.90;;;;;;5073494;28;20150;-88
2024/01/15 07:33:01;;;;;;;0.43;0.35;;;1.50;99.90;;;;;;5067040;28;20032;-88
2024/01/15 07:35:26;;;;;;;0.20;0.20;;;1.60;99.90;;;;;;5049516;28;20047;-89
2024/01/15 07:37:52;;;;;;;0.20;0.20;;;1.50;99.90;;;;;;5067004;28;20478;-88
2024/01/15 07:40:17;;;;;;;0.63;0.20;;;1.60;99.90;;;;;;5069729;28;20131;-88
2024/01/15 07:42:43;;;;;;;2.38;0.35;;;1.50;99.90;;;;;;5064855;28;20036;-88
2024/01/15 07:45:10;;;;;;;2.92;1.25;;;1.60;99.90;;;;;;5065924;28;20044;-88
2024/01/15 07:47:36;;;;;;;3.38;0.98;;;1.50;99.90;;;;;;5064754;28;20048;-89
2024/01/15 07:50:02;;;;;;;6.35;1.00;;;1.60;99.90;;;;;;5047277;28;20032;-88
2024/01/15 07:52:28;;;;;;;0.55;0.20;;;1.50;99.90;;;;;;5064056;28;20106;-88
2024/01/15 07:54:53;;;;;;;4.20;0.65;;;1.50;99.90;;;;;;5053477;28;20036;-89
2024/01/15 07:57:19;;;;;;;1.65;0.65;;;1.50;99.90;;;;;;5066488;28;20113;-88
2024/01/15 07:59:45;;;;;;;5.28;0.75;;;1.50;99.90;;;;;;5045833;28;20033;-88
2024/01/15 08:02:11;;;;;;;1.60;0.25;;;1.50;99.90;;;;;;5065717;28;20116;-89
2024/01/15 08:04:39;;;;;;;9.27;1.00;;;1.50;99.90;;;;;;5062158;28;20045;-89
2024/01/15 08:07:06;;;;;;;4.80;0.98;;;1.40;99.90;;;;;;5046269;28;20047;-89
2024/01/15 08:09:32;;;;;;;2.97;0.88;;;1.40;99.90;;;;;;5046223;28;20032;-89
2024/01/15 08:11:58;;;;;;;7.38;1.95;;;1.40;99.90;;;;;;5066239;28;20519;-88
2024/01/15 08:14:24;;;;;;;4.00;1.05;;;1.30;99.90;;;;;;5050727;28;20571;-88
2024/01/15 08:16:50;;;;;;;6.35;1.08;;;1.40;99.90;;;;;;5066976;28;20090;-89
2024/01/15 08:19:16;;;;;;;3.83;0.90;;;1.40;99.90;;;;;;5069533;28;20648;-89
2024/01/15 08:21:42;;;;;;;1.70;0.60;;;1.40;99.90;;;;;;5067202;28;20046;-89
2024/01/15 08:24:08;;;;;;;4.65;1.50;;;1.40;99.90;;;;;;5067376;28;20516;-89
2024/01/15 08:26:34;;;;;;;4.18;0.60;;;1.40;99.90;;;;;;5066612;28;20404;-88
2024/01/15 08:29:00;;;;;;;2.80;0.55;;;1.40;99.90;;;;;;5066721;28;20513;-89
2024/01/15 08:31:25;;;;;;;5.07;0.93;;;1.40;99.90;;;;;;5070727;28;20040;-89
2024/01/15 08:33:51;;;;;;;3.55;0.57;;;1.40;99.90;;;;;;5070555;28;20036;-89
2024/01/15 08:36:18;;;;;;;4.28;0.47;;;1.40;99.90;;;;;;5071494;28;20032;-88
2024/01/15 08:38:44;;;;;;;7.43;0.65;;;1.40;99.90;;;;;;5073376;28;20036;-89
2024/01/15 08:41:10;;;;;;;3.80;0.93;;;1.40;99.90;;;;;;5055861;28;20036;-88
2024/01/15 08:43:36;;;;;;;3.35;0.55;;;1.50;99.90;;;;;;5055363;28;20036;-89
2024/01/15 08:46:02;;;;;;;5.18;0.90;;;1.50;99.90;;;;;;5051713;28;20037;-89
2024/01/15 08:48:28;;;;;;;1.55;0.60;;;1.50;99.90;;;;;;5055783;28;20048;-89
2024/01/15 08:50:54;;;;;;;4.72;0.98;;;1.50;99.90;;;;;;5069658;28;20055;-89
2024/01/15 08:53:20;;;;;;;3.42;0.65;;;1.60;99.90;;;;;;5056344;28;20028;-88
2024/01/15 08:55:47;;;;;;;3.22;1.02;;;1.60;99.90;;;;;;5057909;28;20048;-89
2024/01/15 08:58:13;;;;;;;8.35;0.98;;;1.60;99.90;;;;;;5054579;28;20117;-88
2024/01/15 09:00:39;;;;;;;2.15;0.63;;;1.70;99.90;;;;;;5070703;28;20054;-89
2024/01/15 09:03:05;;;;;;;4.75;0.40;;;1.70;99.90;;;;;;5053485;28;20496;-88
2024/01/15 09:05:31;;;;;;;2.60;0.50;;;1.70;99.90;;;;;;5053741;28;20032;-88
2024/01/15 09:07:57;;;;;;;2.15;0.35;;;1.80;99.90;;;;;;5073648;28;20089;-89
2024/01/15 09:10:22;;;;;;;2.00;0.70;;;1.80;99.90;;;;;;5072123;28;20400;-88
2024/01/15 09:12:51;;;;;;;1.38;0.70;;;1.80;99.90;;;;;;5070559;28;20511;-89
2024/01/15 09:15:16;;;;;;;4.03;0.68;;;1.80;99.90;;;;;;5052828;28;20036;-89
2024/01/15 09:17:42;;;;;;;2.20;0.38;;;1.90;99.90;;;;;;5069903;28;20033;-89
2024/01/15 09:20:09;;;;;;;10.18;1.33;;;1.90;99.90;;;;;;5052968;28;20580;-88
2024/01/15 09:22:35;;;;;;;3.05;0.60;;;2.00;99.90;;;;;;5071774;28;20500;-89
2024/01/15 09:25:01;;;;;;;3.63;1.30;;;2.00;99.90;;;;;;5052933;28;20036;-89
2024/01/15 09:27:26;;;;;;;2.30;0.40;;;2.00;99.90;;;;;;5052282;28;20040;-89
2024/01/15 09:29:53;;;;;;;0.52;0.15;;;2.00;99.90;;;;;;5069403;28;20443;-89
2024/01/15 09:32:18;;;;;;;3.67;1.27;;;2.00;99.90;;;;;;5070562;28;20036;-89
2024/01/15 09:34:46;;;;;;;1.27;0.40;;;2.10;99.90;;;;;;5056052;28;20039;-89
2024/01/15 09:37:12;;;;;;;2.25;0.55;;;2.10;99.90;;;;;;5055566;28;20028;-89
2024/01/15 09:39:37;;;;;;;2.75;0.40;;;2.20;99.90;;;;;;5071133;28;20400;-88
2024/01/15 09:42:03;;;;;;;4.43;1.80;;;2.20;99.90;;;;;;5052034;28;20488;-90
2024/01/15 09:44:30;;;;;;;1.58;0.70;;;2.30;99.90;;;;;;5051678;28;20040;-89
2024/01/15 09:46:57;;;;;;;2.38;0.47;;;2.20;99.90;;;;;;5052291;28;20395;-90
2024/01/15 09:49:23;;;;;;;6.30;1.08;;;2.20;99.90;;;;;;5052469;28;20032;-89
2024/01/15 09:51:49;;;;;;;3.45;0.93;;;2.10;99.90;;;;;;5052073;28;20537;-90
2024/01/15 09:54:17;;;;;;;0.95;0.30;;;2.10;99.90;;;;;;5070021;28;20028;-90
2024/01/15 09:56:46;;;;;;;1.10;0.28;;;2.10;99.90;;;;;;5070206;28;20044;-89
2024/01/15 09:59:15;;;;;;;1.50;0.43;;;2.10;99.90;;;;;;5068800;28;20041;-90
2024/01/15 10:01:41;;;;;;;5.38;1.15;;;2.10;99.90;;;;;;5066883;28;20124;-89
2024/01/15 10:04:07;;;;;;;1.90;0.50;;;2.10;99.90;;;;;;5052006;28;20893;-90
2024/01/15 10:06:34;;;;;;;2.65;0.55;;;2.10;99.90;;;;;;5056247;28;20438;-90
2024/01/15 10:09:00;;;;;;;1.65;0.47;;;2.20;99.90;;;;;;5069019;28;20037;-88
2024/01/15 10:11:26;;;;;;;4.53;0.30;;;2.20;99.90;;;;;;5068723;28;20041;-89
2024/01/15 10:13:53;;;;;;;2.75;1.27;;;2.20;99.90;;;;;;5051817;28;20040;-89
2024/01/15 10:16:19;;;;;;;2.85;0.35;;;2.30;99.90;;;;;;5053399;28;20036;-89
2024/01/15 10:18:45;;;;;;;3.55;0.75;;;2.40;99.90;;;;;;5068642;28;20630;-89
2024/01/15 10:21:10;;;;;;;8.55;0.85;;;2.40;99.90;;;;;;5054286;28;20068;-89
2024/01/15 10:23:36;;;;;;;2.28;0.47;;;2.40;99.90;;;;;;5053322;28;20131;-90
2024/01/15 10:26:03;;;;;;;0.90;0.47;;;2.50;99.90;;;;;;5052316;28;20074;-90
2024/01/15 10:28:30;;;;;;;0.88;0.30;;;2.50;99.90;;;;;;5052121;28;20040;-90
2024/01/15 10:31:00;;;;;;;2.20;0.85;;;2.60;99.90;;;;;;5051223;28;20040;-90
2024/01/15 10:33:26;;;;;;;1.75;1.55;;;2.70;99.90;;;;;;5069621;28;20033;-90
2024/01/15 10:36:00;;;;;;;1.48;0.28;;;2.60;99.90;;;;;;5068335;28;20080;-90
2024/01/15 10:38:26;;;;;;;3.03;0.93;;;2.50;99.90;;;;;;5069913;28;20083;-90
2024/01/15 10:40:53;;;;;;;1.25;0.50;;;2.60;99.90;;;;;;5067132;28;20029;-90
2024/01/15 10:43:18;;;;;;;3.50;0.68;;;2.70;99.90;;;;;;5064205;28;20040;-90
2024/01/15 10:45:48;;;;;;;1.65;0.90;;;2.80;99.90;;;;;;5049916;28;20036;-89
2024/01/15 10:48:15;;;;;;;1.65;0.60;;;2.70;99.90;;;;;;5065876;28;20039;-89
2024/01/15 10:50:41;;;;;;;0.98;0.40;;;2.60;99.90;;;;;;5052205;28;20419;-90
2024/01/15 10:53:09;;;;;;;0.10;0.10;;;2.60;99.90;;;;;;5051020;28;20035;-90
2024/01/15 10:55:37;;;;;;;1.45;0.40;;;2.50;99.90;;;;;;5050854;28;20036;-90
2024/01/15 10:58:03;;;;;;;0.63;0.28;;;2.50;99.90;;;;;;5066124;28;20044;-89
2024/01/15 11:00:30;;;;;;;1.90;0.82;;;2.50;99.90;;;;;;5051225;28;20073;-90
2024/01/15 11:02:56;;;;;;;1.50;0.50;;;2.60;99.90;;;;;;5050983;28;20407;-90
2024/01/15 11:05:22;;;;;;;2.03;0.35;;;2.70;99.90;;;;;;5068830;28;20118;-89
2024/01/15 11:07:55;;;;;;;2.85;0.30;;;2.70;99.90;;;;;;5068012;28;20043;-89
2024/01/15 11:10:46;;;;;;;3.63;0.77;;;2.60;99.90;;;;;;5067362;28;20115;-90
2024/01/15 11:13:32;;;;;;;6.90;1.95;;;2.60;99.90;;;;;;5050806;28;20037;-90
2024/01/15 11:16:03;;;;;;;1.10;0.47;;;2.60;99.90;;;;;;5052182;28;20050;-90
2024/01/15 11:18:31;;;;;;;4.55;0.90;;;2.70;99.90;;;;;;5067216;28;20119;-89
2024/01/15 11:21:18;;;;;;;2.10;0.60;;;2.80;99.90;;;;;;5068732;28;20071;-90
2024/01/15 11:23:49;;;;;;;3.30;0.68;;;2.90;99.90;;;;;;5053399;28;20086;-88
2024/01/15 11:26:28;;;;;;;3.90;1.02;;;2.90;99.90;;;;;;5065769;28;20032;-88
2024/01/15 11:29:03;;;;;;;4.13;0.82;;;2.90;99.90;;;;;;5066129;28;20058;-89
2024/01/15 11:31:49;;;;;;;3.10;0.30;;;3.00;99.90;;;;;;5063783;28;20028;-90
2024/01/15 11:34:14;;;;;;;1.45;1.08;;;3.00;99.90;;;;;;5065361;28;20044;-90
2024/01/15 11:36:49;;;;;;;0.88;0.25;;;2.90;99.90;;;;;;5065551;28;20113;-90
2024/01/15 11:39:27;;;;;;;2.10;0.30;;;2.80;99.90;;;;;;5048145;28;20064;-89
2024/01/15 11:42:00;;;;;;;2.85;0.50;;;2.80;99.90;;;;;;5066407;28;20719;-91
2024/01/15 11:44:26;;;;;;;2.08;0.25;;;2.70;99.90;;;;;;5063644;28;20040;-90
2024/01/15 11:47:06;;;;;;;1.65;0.30;;;2.70;99.90;;;;;;5070433;28;20048;-91
2024/01/15 11:50:00;;;;;;;2.13;0.40;;;2.80;99.90;;;;;;5067051;28;20518;-89
2024/01/15 11:52:26;;;;;;;0.65;0.20;;;2.80;99.90;;;;;;5048675;28;20467;-90
2024/01/15 11:55:03;;;;;;;0.52;0.30;;;2.90;99.90;;;;;;5048446;28;20051;-90
2024/01/15 11:57:51;;;;;;;1.65;0.30;;;2.90;99.90;;;;;;5065714;28;20044;-90
2024/01/15 12:00:17;;;;;;;1.48;0.47;;;3.00;99.90;;;;;;5068175;28;21380;-90
2024/01/15 12:02:44;;;;;;;0.35;0.20;;;3.10;99.90;;;;;;5049530;28;20170;-90
2024/01/15 12:05:12;;;;;;;0.32;0.20;;;3.20;99.90;;;;;;5048229;28;20044;-90
2024/01/15 12:07:45;;;;;;;0.93;0.30;;;3.20;99.90;;;;;;5063816;28;20036;-90
2024/01/15 12:10:18;;;;;;;1.35;0.40;;;3.20;99.90;;;;;;5062946;28;20492;-89
2024/01/15 12:13:02;;;;;;;1.88;0.73;;;3.20;99.90;;;;;;5065331;28;20044;-89
2024/01/15 12:15:29;;;;;;;4.70;0.28;;;3.20;99.90;;;;;;5047213;28;20124;-90
2024/01/15 12:18:02;;;;;;;0.38;0.30;;;3.20;99.90;;;;;;5045355;28;20036;-90
2024/01/15 12:20:32;;;;;;;0.63;0.38;;;3.20;99.90;;;;;;5046545;28;20029;-90
2024/01/15 12:22:58;;;;;;;0.60;0.30;;;3.10;99.90;;;;;;5048132;28;20478;-89
2024/01/15 12:25:25;;;;;;;1.35;0.30;;;2.90;99.90;;;;;;5062664;28;20064;-89
2024/01/15 12:27:51;;;;;;;0.63;0.20;;;2.90;99.90;;;;;;5062961;28;20055;-90
2024/01/15 12:30:18;;;;;;;2.55;0.60;;;2.70;99.90;;;;;;5063113;28;20479;-89
2024/01/15 12:32:44;;;;;;;1.45;0.43;;;2.70;99.90;;;;;;5062418;28;20045;-90
2024/01/15 12:35:11;;;;;;;4.15;0.88;;;2.60;99.90;;;;;;5063635;28;20044;-90
2024/01/15 12:37:37;;;;;;;3.40;0.73;;;2.60;99.90;;;;;;5065903;28;20484;-90
2024/01/15 12:40:06;;;;;;;2.33;0.47;;;2.60;99.90;;;;;;5048165;28;20131;-89
2024/01/15 12:42:36;;;;;;;4.38;0.55;;;2.50;99.90;;;;;;5065459;28;20045;-90
2024/01/15 12:45:04;;;;;;;2.55;0.50;;;2.50;99.90;;;;;;5060481;28;20535;-90
2024/01/15 12:47:30;;;;;;;4.63;1.23;;;2.60;99.90;;;;;;5045391;28;20062;-90
2024/01/15 12:49:57;;;;;;;2.90;0.75;;;2.60;99.90;;;;;;5059073;28;20068;-90
2024/01/15 12:52:23;;;;;;;5.38;0.70;;;2.60;99.90;;;;;;5046568;28;20195;-90
2024/01/15 12:54:52;;;;;;;2.28;0.47;;;2.60;99.90;;;;;;5063340;28;20124;-90